Main page
METAR-TAF:

METAR-TAF

Airports :

London Southend Airport

London-Southend, England

latitude: 51-34N, longitude: 000-42E, elevation: 15 m

Current weather observation

The report was made 32 minutes ago, at 22:20 UTC
Wind 16 kt from the West/Southwest with gusts up to 26 kt
Temperature 14°C
Humidity 63%
Pressure 1013 hPa
Visibility 10 km or more
no clouds below 1500 m and no cumulonimbus

METAR: EGMC 052220Z 25016G26KT CAVOK 14/07 Q1013

Time: 23:52 (22:52 UTC)

Forecast

The report was made 2 hours and 55 minutes ago, at 19:57 UTC
Forecast valid from 05 at 21 UTC to 06 at 06 UTC
Wind 15 kt from the West with gusts up to 25 kt
Visibility 10 km or more
Few clouds at a height of 4000 ft

TAF: EGMC 051957Z 0521/0606 26015G25KT 9999 FEW040

Weather observations and forecasts of more than 4000 airports (METAR and TAF reports).

The available stations are represented by yellow and red dots on the map.

Hover mouse over dot to see the name of the station.

Then click to see weather observations and forecasts.

To change the map : click on the green buttons with a black cross to zoom in, on the green button with a dash to zoom out, or on the green arrows for adjacent maps.


METAR-TAF: